Time;durP1;ratioP1;P1;durP2;ratioP2;P2;SDS_P1;SDS_P2;PMS_P1;PMS_P2;Temp;Humidity;BMP_temperature;BMP_pressure;BME280_temperature;BME280_humidity;BME280_pressure;Samples;Min_cycle;Max_cycle;Signal;HPM_P1;HPM_P2
2023/07/10 00:00:51;;;;;;;8.68;5.80;;;;;;;21.66;100.00;96154.88;5041107;28;24439;-78
2023/07/10 00:03:17;;;;;;;8.88;5.75;;;;;;;21.81;100.00;96152.47;5030537;28;24487;-78
2023/07/10 00:05:44;;;;;;;7.25;5.88;;;;;;;21.71;100.00;96162.31;5043072;28;24458;-78
2023/07/10 00:08:10;;;;;;;6.78;5.53;;;;;;;22.09;100.00;96157.53;5035220;28;24502;-78
2023/07/10 00:10:38;;;;;;;7.07;5.03;;;;;;;21.81;100.00;96165.66;5047325;28;25054;-78
2023/07/10 00:13:05;;;;;;;6.67;5.13;;;;;;;21.69;100.00;96156.34;5041999;28;24526;-78
2023/07/10 00:15:31;;;;;;;7.07;5.30;;;;;;;21.77;100.00;96156.41;5040386;28;24511;-78
2023/07/10 00:17:58;;;;;;;6.93;5.07;;;;;;;21.79;100.00;96161.53;5035936;28;24444;-79
2023/07/10 00:20:27;;;;;;;8.38;5.40;;;;;;;21.79;100.00;96150.97;5039011;28;24444;-77
2023/07/10 00:22:54;;;;;;;8.52;5.80;;;;;;;21.65;100.00;96157.63;5048565;28;24434;-79
2023/07/10 00:25:21;;;;;;;6.63;5.27;;;;;;;21.63;100.00;96159.63;5042153;28;24515;-79
2023/07/10 00:27:50;;;;;;;8.43;5.80;;;;;;;21.76;100.00;96144.19;5052125;28;24463;-78
2023/07/10 00:30:19;;;;;;;10.02;5.28;;;;;;;21.72;100.00;96135.78;5044062;28;24444;-79
2023/07/10 00:32:47;;;;;;;6.90;5.55;;;;;;;21.65;100.00;96140.00;5041770;28;25072;-78
2023/07/10 00:35:17;;;;;;;8.23;5.13;;;;;;;21.50;100.00;96137.13;5033667;28;24977;-77
2023/07/10 00:37:45;;;;;;;9.57;5.07;;;;;;;21.54;100.00;96132.38;5044473;28;24502;-79
2023/07/10 00:40:22;;;;;;;8.67;5.20;;;;;;;21.49;100.00;96130.19;5042767;28;24439;-76
2023/07/10 00:42:53;;;;;;;7.22;5.60;;;;;;;21.48;100.00;96139.09;5032912;28;24439;-79
2023/07/10 00:45:20;;;;;;;8.47;5.47;;;;;;;21.49;100.00;96143.38;5041108;28;25156;-79
2023/07/10 00:47:57;;;;;;;6.72;5.47;;;;;;;21.49;100.00;96148.66;5043850;28;25016;-78
2023/07/10 00:50:30;;;;;;;5.53;5.00;;;;;;;21.63;100.00;96152.53;5046420;28;24497;-79
2023/07/10 00:53:00;;;;;;;7.07;5.05;;;;;;;21.67;100.00;96159.16;5043026;28;24443;-78
2023/07/10 00:55:30;;;;;;;7.60;4.93;;;;;;;21.58;100.00;96177.69;5044231;28;24448;-78
2023/07/10 00:58:07;;;;;;;6.57;5.40;;;;;;;21.62;100.00;96176.44;5037950;28;24772;-79
2023/07/10 01:00:34;;;;;;;7.72;5.75;;;;;;;21.92;100.00;96188.31;5049059;28;24443;-79
2023/07/10 01:03:01;;;;;;;6.38;4.90;;;;;;;21.54;100.00;96187.72;5040044;28;24432;-78
2023/07/10 01:05:31;;;;;;;7.68;5.65;;;;;;;21.34;100.00;96202.06;5049220;28;24519;-78
2023/07/10 01:08:01;;;;;;;9.65;5.28;;;;;;;21.21;100.00;96205.88;5034929;28;24492;-78
2023/07/10 01:10:28;;;;;;;8.68;5.43;;;;;;;21.03;100.00;96208.53;5052065;28;24877;-78
2023/07/10 01:12:54;;;;;;;8.00;5.03;;;;;;;20.96;100.00;96209.28;5044970;28;24439;-79
2023/07/10 01:15:22;;;;;;;6.10;5.00;;;;;;;20.94;100.00;96208.56;5032745;28;24480;-77
2023/07/10 01:17:49;;;;;;;8.97;5.23;;;;;;;20.97;100.00;96206.47;5040925;28;24432;-79
2023/07/10 01:20:36;;;;;;;5.93;5.20;;;;;;;21.07;100.00;96197.69;5034049;28;24815;-78
2023/07/10 01:23:05;;;;;;;6.93;5.50;;;;;;;21.10;100.00;96200.00;5032072;28;24435;-78
2023/07/10 01:25:37;;;;;;;8.38;5.75;;;;;;;20.95;100.00;96195.28;5035334;28;24989;-78
2023/07/10 01:28:09;;;;;;;6.32;5.22;;;;;;;20.82;100.00;96196.63;5043956;28;25023;-77
2023/07/10 01:30:38;;;;;;;8.55;5.22;;;;;;;20.87;100.00;96200.44;5039033;28;24446;-77
2023/07/10 01:33:06;;;;;;;6.27;5.37;;;;;;;20.70;100.00;96193.38;5029621;28;24436;-78
2023/07/10 01:35:33;;;;;;;6.60;4.90;;;;;;;20.65;100.00;96214.03;5038665;28;24439;-78
2023/07/10 01:38:00;;;;;;;6.00;5.18;;;;;;;20.53;100.00;96208.97;5034369;28;24517;-77
2023/07/10 01:40:36;;;;;;;7.75;5.32;;;;;;;20.59;100.00;96207.56;5037041;28;24444;-78
2023/07/10 01:43:02;;;;;;;7.70;5.53;;;;;;;20.81;100.00;96216.84;5045122;28;24521;-78
2023/07/10 01:45:29;;;;;;;9.40;6.03;;;;;;;20.91;100.00;96209.72;5036780;28;24478;-78
2023/07/10 01:47:56;;;;;;;6.78;5.65;;;;;;;21.04;100.00;96206.72;5042621;28;24808;-78
2023/07/10 01:50:23;;;;;;;10.37;5.60;;;;;;;21.20;100.00;96208.66;5044528;28;24431;-78
2023/07/10 01:52:50;;;;;;;5.70;5.10;;;;;;;21.13;100.00;96210.22;5048714;28;24454;-77
2023/07/10 01:55:19;;;;;;;5.95;5.30;;;;;;;20.80;100.00;96199.38;5043470;28;24450;-78
2023/07/10 01:57:47;;;;;;;6.82;5.60;;;;;;;20.67;100.00;96193.66;5036445;28;24981;-78
2023/07/10 02:00:14;;;;;;;7.65;5.28;;;;;;;20.55;100.00;96190.41;5040391;28;24439;-77
2023/07/10 02:02:40;;;;;;;6.40;5.18;;;;;;;20.56;100.00;96185.97;5038380;28;24784;-78
2023/07/10 02:05:08;;;;;;;8.10;5.90;;;;;;;20.61;100.00;96189.81;5043501;28;25011;-78
2023/07/10 02:07:34;;;;;;;8.50;5.73;;;;;;;20.70;100.00;96185.47;5037566;28;24471;-78
2023/07/10 02:10:00;;;;;;;8.45;5.40;;;;;;;20.78;100.00;96164.50;5038904;28;24462;-77
2023/07/10 02:12:27;;;;;;;8.55;5.88;;;;;;;20.81;100.00;96176.53;5048561;28;25015;-78
2023/07/10 02:14:55;;;;;;;11.65;5.88;;;;;;;20.84;100.00;96181.47;5030801;28;24441;-78
2023/07/10 02:17:21;;;;;;;10.15;5.55;;;;;;;20.88;100.00;96167.91;5044222;28;24451;-78
2023/07/10 02:19:47;;;;;;;9.88;5.30;;;;;;;20.95;100.00;96174.22;5039329;28;24436;-78
2023/07/10 02:22:14;;;;;;;12.60;5.47;;;;;;;20.86;100.00;96177.72;5043524;28;24442;-77
2023/07/10 02:24:41;;;;;;;7.25;5.28;;;;;;;20.90;100.00;96187.00;5048023;28;24446;-79
2023/07/10 02:27:08;;;;;;;8.05;5.45;;;;;;;20.97;100.00;96197.75;5042055;28;24825;-79
2023/07/10 02:29:34;;;;;;;7.37;5.73;;;;;;;20.99;100.00;96194.00;5040475;28;24446;-78
2023/07/10 02:32:03;;;;;;;9.48;5.72;;;;;;;20.76;100.00;96198.03;5029512;28;24432;-79
2023/07/10 02:34:30;;;;;;;7.57;5.57;;;;;;;20.49;100.00;96199.72;5037931;28;24475;-77
2023/07/10 02:36:56;;;;;;;6.35;5.60;;;;;;;20.71;100.00;96185.31;5035455;28;24548;-79
2023/07/10 02:39:23;;;;;;;9.30;5.20;;;;;;;20.97;100.00;96172.25;5037349;28;24435;-78
2023/07/10 02:41:49;;;;;;;8.60;5.90;;;;;;;21.26;100.00;96155.38;5028117;28;24437;-78
2023/07/10 02:44:15;;;;;;;8.43;6.03;;;;;;;20.75;100.00;96162.97;5036147;28;24487;-76
2023/07/10 02:46:42;;;;;;;6.68;5.30;;;;;;;20.43;100.00;96181.88;5045540;28;24443;-78
2023/07/10 02:49:10;;;;;;;7.35;5.70;;;;;;;20.36;100.00;96185.22;5025081;28;24452;-79
2023/07/10 02:51:36;;;;;;;8.70;5.77;;;;;;;20.10;100.00;96204.31;5030696;28;24439;-78
2023/07/10 02:54:10;;;;;;;9.95;5.65;;;;;;;20.18;100.00;96228.09;5048722;28;24794;-77
2023/07/10 02:56:37;;;;;;;10.45;5.97;;;;;;;20.05;100.00;96238.09;5041931;28;24471;-77
2023/07/10 02:59:03;;;;;;;7.43;5.57;;;;;;;20.09;100.00;96236.81;5033088;28;24507;-78
2023/07/10 03:01:30;;;;;;;11.57;6.28;;;;;;;19.90;100.00;96223.75;5035095;28;25009;-76
2023/07/10 03:03:56;;;;;;;8.18;5.68;;;;;;;19.73;100.00;96238.47;5032985;28;24447;-77
2023/07/10 03:06:24;;;;;;;14.15;5.88;;;;;;;19.75;100.00;96247.03;5041272;28;24440;-78
2023/07/10 03:08:51;;;;;;;11.63;6.15;;;;;;;19.89;100.00;96235.25;5037686;28;24463;-78
2023/07/10 03:11:18;;;;;;;9.65;5.18;;;;;;;20.11;100.00;96232.25;5026420;28;24447;-79
2023/07/10 03:13:45;;;;;;;8.05;5.22;;;;;;;20.32;100.00;96224.16;5031400;28;24435;-79
2023/07/10 03:16:13;;;;;;;7.30;5.38;;;;;;;20.58;100.00;96226.13;5024693;28;24454;-78
2023/07/10 03:18:40;;;;;;;8.07;5.80;;;;;;;20.72;100.00;96221.19;5027157;28;25037;-78
2023/07/10 03:21:08;;;;;;;9.13;5.80;;;;;;;20.62;100.00;96219.63;5028570;28;24447;-78
2023/07/10 03:23:36;;;;;;;7.40;5.35;;;;;;;20.63;100.00;96231.78;5038142;28;24435;-77
2023/07/10 03:26:02;;;;;;;7.57;5.30;;;;;;;20.70;100.00;96248.66;5036009;28;24462;-77
2023/07/10 03:28:29;;;;;;;7.07;5.50;;;;;;;20.76;100.00;96250.66;5053012;28;24448;-76
2023/07/10 03:30:56;;;;;;;7.85;5.13;;;;;;;20.88;100.00;96248.69;5040209;28;24451;-77
2023/07/10 03:33:22;;;;;;;12.15;5.18;;;;;;;20.93;100.00;96244.63;5034584;28;24826;-78
2023/07/10 03:35:58;;;;;;;7.57;5.07;;;;;;;20.95;100.00;96242.69;5035502;28;24436;-77
2023/07/10 03:38:25;;;;;;;7.17;5.53;;;;;;;21.20;100.00;96242.91;5043770;28;24444;-76
2023/07/10 03:40:54;;;;;;;5.68;4.80;;;;;;;21.15;100.00;96256.53;5030166;28;24436;-77
2023/07/10 03:43:20;;;;;;;9.15;4.90;;;;;;;20.66;100.00;96258.63;5048690;28;25002;-77
2023/07/10 03:45:47;;;;;;;8.77;5.20;;;;;;;20.65;100.00;96258.78;5042575;28;24444;-78
2023/07/10 03:48:13;;;;;;;8.17;5.03;;;;;;;20.72;100.00;96259.84;5035139;28;24459;-76
2023/07/10 03:50:40;;;;;;;6.15;4.93;;;;;;;20.79;100.00;96263.53;5031289;28;24446;-78
2023/07/10 03:53:06;;;;;;;9.10;5.40;;;;;;;20.79;100.00;96266.19;5040843;28;24438;-75
2023/07/10 03:55:33;;;;;;;9.68;5.50;;;;;;;20.83;100.00;96266.72;5036804;28;24438;-78
2023/07/10 03:58:01;;;;;;;7.60;5.68;;;;;;;20.82;100.00;96281.69;5038604;28;24447;-77
2023/07/10 04:00:28;;;;;;;11.68;5.28;;;;;;;20.81;100.00;96282.66;5035669;28;24483;-78
2023/07/10 04:02:54;;;;;;;7.68;4.93;;;;;;;20.73;100.00;96278.13;5028270;28;24814;-77
2023/07/10 04:05:21;;;;;;;7.20;5.50;;;;;;;20.69;100.00;96262.75;5036637;28;24432;-78
2023/07/10 04:07:47;;;;;;;8.90;5.32;;;;;;;20.82;100.00;96265.06;5039580;28;24455;-77
2023/07/10 04:10:14;;;;;;;10.20;5.28;;;;;;;20.72;100.00;96254.56;5039456;28;24462;-76
2023/07/10 04:12:41;;;;;;;8.90;5.17;;;;;;;20.79;100.00;96250.38;5034163;28;24824;-77
2023/07/10 04:15:10;;;;;;;9.05;5.63;;;;;;;20.99;100.00;96245.84;5048568;28;24451;-78
2023/07/10 04:17:36;;;;;;;10.68;5.65;;;;;;;20.61;100.00;96237.19;5042702;28;24442;-76
2023/07/10 04:20:03;;;;;;;12.18;5.22;;;;;;;20.82;100.00;96246.63;5037466;28;24477;-77
2023/07/10 04:22:30;;;;;;;9.70;5.05;;;;;;;20.62;100.00;96259.09;5053824;28;24443;-78
2023/07/10 04:25:03;;;;;;;8.35;5.10;;;;;;;20.47;100.00;96270.06;5044035;28;25166;-77
2023/07/10 04:27:30;;;;;;;8.30;5.38;;;;;;;20.41;100.00;96259.28;5051586;28;24439;-78
2023/07/10 04:29:56;;;;;;;9.23;5.18;;;;;;;20.49;100.00;96241.81;5039790;28;24443;-77
2023/07/10 04:32:24;;;;;;;9.18;5.35;;;;;;;20.70;100.00;96232.84;5023819;28;24440;-77
2023/07/10 04:34:51;;;;;;;8.80;5.63;;;;;;;20.75;100.00;96249.03;5039076;28;25023;-78
2023/07/10 04:37:17;;;;;;;8.73;5.57;;;;;;;20.34;100.00;96306.38;5025760;28;24452;-79
2023/07/10 04:39:44;;;;;;;7.95;5.80;;;;;;;20.30;100.00;96334.75;5027478;28;24436;-77
2023/07/10 04:42:10;;;;;;;6.10;5.30;;;;;;;20.12;100.00;96335.63;5037497;28;24444;-78
2023/07/10 04:44:37;;;;;;;6.65;5.03;;;;;;;20.07;100.00;96325.56;5055288;28;24436;-77
2023/07/10 04:47:03;;;;;;;5.88;5.10;;;;;;;20.20;100.00;96317.34;5043816;28;24493;-77
2023/07/10 04:49:31;;;;;;;8.60;6.03;;;;;;;20.65;100.00;96328.03;5041637;28;24453;-78
2023/07/10 04:51:58;;;;;;;8.38;5.55;;;;;;;20.48;100.00;96362.97;5032092;28;24461;-78
2023/07/10 04:54:24;;;;;;;11.57;6.00;;;;;;;20.31;100.00;96364.53;5046696;28;24452;-78
2023/07/10 04:56:52;;;;;;;10.80;5.80;;;;;;;20.34;100.00;96359.00;5052964;28;24485;-78
2023/07/10 04:59:18;;;;;;;7.75;5.53;;;;;;;20.43;100.00;96358.16;5044293;28;24467;-78
2023/07/10 05:01:45;;;;;;;8.63;5.55;;;;;;;20.61;100.00;96346.88;5037801;28;24435;-78
2023/07/10 05:04:12;;;;;;;9.73;5.27;;;;;;;20.66;100.00;96349.94;5040568;28;24436;-77
2023/07/10 05:06:39;;;;;;;8.25;6.10;;;;;;;20.69;100.00;96350.47;5048110;28;25095;-77
2023/07/10 05:09:06;;;;;;;10.70;5.18;;;;;;;20.85;100.00;96339.31;5048295;28;24443;-78
2023/07/10 05:11:32;;;;;;;7.97;5.68;;;;;;;21.03;100.00;96323.56;5033006;28;24428;-77
2023/07/10 05:13:59;;;;;;;7.63;4.60;;;;;;;21.36;100.00;96314.22;5033136;28;24575;-78
2023/07/10 05:16:27;;;;;;;6.82;5.43;;;;;;;21.68;100.00;96311.06;5040905;28;25007;-78
2023/07/10 05:18:53;;;;;;;14.02;5.32;;;;;;;21.62;100.00;96305.59;5048880;28;24970;-79
2023/07/10 05:21:20;;;;;;;7.30;5.30;;;;;;;21.49;100.00;96303.31;5036185;28;24443;-78
2023/07/10 05:23:49;;;;;;;7.53;5.35;;;;;;;21.67;100.00;96298.03;5040959;28;24435;-77
2023/07/10 05:26:19;;;;;;;5.90;4.90;;;;;;;22.02;100.00;96289.22;5032815;28;25047;-79
2023/07/10 05:28:45;;;;;;;8.32;5.15;;;;;;;22.13;100.00;96296.06;5040165;28;24541;-79
2023/07/10 05:31:13;;;;;;;5.82;5.13;;;;;;;22.18;100.00;96296.47;5039197;28;24440;-77
2023/07/10 05:33:40;;;;;;;7.85;5.10;;;;;;;22.42;100.00;96298.41;5036219;28;25087;-76
2023/07/10 05:36:10;;;;;;;8.15;5.32;;;;;;;22.44;100.00;96304.38;5039031;28;25027;-76
2023/07/10 05:38:37;;;;;;;9.23;5.00;;;;;;;22.59;100.00;96317.81;5048457;28;24485;-73
2023/07/10 05:41:04;;;;;;;8.75;4.88;;;;;;;22.71;100.00;96349.06;5034765;28;24440;-78
2023/07/10 05:43:32;;;;;;;20.60;5.60;;;;;;;22.61;100.00;96371.25;5046018;28;24432;-77
2023/07/10 05:45:59;;;;;;;9.27;5.40;;;;;;;22.42;100.00;96380.22;5044358;28;24794;-77
2023/07/10 05:48:25;;;;;;;8.50;5.53;;;;;;;22.33;100.00;96386.44;5036088;28;24535;-80
2023/07/10 05:50:53;;;;;;;9.13;5.55;;;;;;;22.32;100.00;96390.91;5037223;28;24448;-80
2023/07/10 05:53:20;;;;;;;9.85;5.43;;;;;;;22.40;100.00;96393.59;5040426;28;24479;-78
2023/07/10 05:55:48;;;;;;;8.95;5.40;;;;;;;22.40;100.00;96393.59;5052584;28;25036;-79
2023/07/10 05:58:16;;;;;;;9.60;5.63;;;;;;;22.36;100.00;96394.88;5037755;28;24498;-76
2023/07/10 06:00:44;;;;;;;6.35;4.88;;;;;;;22.54;100.00;96378.97;5045022;28;24440;-77
2023/07/10 06:03:11;;;;;;;13.82;5.15;;;;;;;22.65;100.00;96389.28;5033810;28;24432;-77
2023/07/10 06:05:37;;;;;;;11.17;5.40;;;;;;;22.77;100.00;96370.53;5018031;28;24438;-77
2023/07/10 06:08:04;;;;;;;7.03;4.80;;;;;;;22.83;100.00;96361.97;5029012;28;24459;-76
2023/07/10 06:10:31;;;;;;;9.13;5.23;;;;;;;22.82;100.00;96358.50;5043111;28;24572;-77
2023/07/10 06:12:57;;;;;;;7.13;5.10;;;;;;;22.83;100.00;96377.81;5033794;28;24432;-77
2023/07/10 06:15:25;;;;;;;9.50;5.00;;;;;;;22.94;100.00;96381.03;5035668;28;24553;-77
2023/07/10 06:17:52;;;;;;;6.33;5.13;;;;;;;23.02;100.00;96376.78;5033170;28;24443;-77
2023/07/10 06:20:18;;;;;;;7.63;4.80;;;;;;;22.85;100.00;96375.88;5028601;28;24498;-76
2023/07/10 06:22:45;;;;;;;10.27;5.13;;;;;;;23.00;100.00;96361.09;5044409;28;24458;-78
2023/07/10 06:25:11;;;;;;;9.45;4.90;;;;;;;22.99;100.00;96354.19;5035291;28;24455;-79
2023/07/10 06:27:38;;;;;;;7.82;5.28;;;;;;;22.91;100.00;96359.38;5043654;28;25068;-80
2023/07/10 06:30:06;;;;;;;6.78;4.50;;;;;;;22.94;100.00;96354.63;5027097;28;25021;-80
2023/07/10 06:32:34;;;;;;;6.07;4.78;;;;;;;22.93;100.00;96355.63;5024446;28;24974;-81
2023/07/10 06:35:00;;;;;;;6.43;4.90;;;;;;;23.06;100.00;96355.16;5022007;28;24514;-81
2023/07/10 06:37:27;;;;;;;6.13;4.63;;;;;;;23.26;100.00;96347.00;5027565;28;24444;-78
2023/07/10 06:40:08;;;;;;;13.23;5.00;;;;;;;23.47;98.72;96333.31;5041332;28;24797;-79
2023/07/10 06:42:35;;;;;;;5.53;4.10;;;;;;;23.70;98.06;96338.84;5031506;28;24434;-78
2023/07/10 06:45:01;;;;;;;7.53;5.10;;;;;;;23.86;97.09;96342.31;5038468;28;24514;-78
2023/07/10 06:47:28;;;;;;;6.57;4.55;;;;;;;23.93;99.12;96336.38;5029846;28;24444;-78
2023/07/10 06:49:56;;;;;;;12.07;5.00;;;;;;;24.13;99.71;96335.84;5041044;28;24455;-78
2023/07/10 06:52:22;;;;;;;6.78;4.45;;;;;;;24.48;95.86;96344.47;5034637;28;24431;-78
2023/07/10 06:54:49;;;;;;;8.48;4.85;;;;;;;24.70;93.81;96350.03;5022966;28;24502;-78
2023/07/10 06:57:15;;;;;;;6.53;4.97;;;;;;;24.87;93.13;96349.78;5015916;28;24445;-79
2023/07/10 06:59:42;;;;;;;7.05;4.68;;;;;;;25.20;89.55;96352.34;5019872;28;24488;-80
2023/07/10 07:02:12;;;;;;;7.87;5.00;;;;;;;25.31;87.04;96367.03;5033528;28;24436;-79
2023/07/10 07:04:38;;;;;;;11.23;5.28;;;;;;;25.32;87.40;96361.56;5028283;28;24976;-79
2023/07/10 07:07:07;;;;;;;12.52;4.93;;;;;;;25.49;87.89;96361.47;5039187;28;24444;-80
2023/07/10 07:09:33;;;;;;;8.60;4.78;;;;;;;25.70;85.32;96368.81;5030823;28;24518;-80
2023/07/10 07:12:00;;;;;;;13.13;4.90;;;;;;;26.05;86.61;96364.78;5039798;28;24513;-81
2023/07/10 07:14:26;;;;;;;7.70;5.13;;;;;;;26.19;82.54;96369.31;5026681;28;24452;-79
2023/07/10 07:16:53;;;;;;;14.15;5.53;;;;;;;26.22;80.17;96374.25;5034754;28;24443;-79
2023/07/10 07:19:19;;;;;;;7.57;4.97;;;;;;;26.41;85.12;96375.59;5042500;28;24443;-81
2023/07/10 07:21:46;;;;;;;9.25;4.97;;;;;;;26.43;80.08;96388.66;5034835;28;24443;-81
2023/07/10 07:24:14;;;;;;;13.38;5.65;;;;;;;26.08;81.26;96388.31;5033518;28;24783;-81
2023/07/10 07:26:40;;;;;;;13.85;5.30;;;;;;;26.23;81.63;96388.34;5024257;28;24440;-80
2023/07/10 07:29:07;;;;;;;7.35;4.45;;;;;;;26.35;79.22;96389.56;5026644;28;24459;-80
2023/07/10 07:31:34;;;;;;;12.77;4.60;;;;;;;26.69;77.44;96396.25;5025170;28;24447;-78
2023/07/10 07:34:00;;;;;;;6.70;4.13;;;;;;;26.60;78.16;96400.84;5022007;28;24440;-78
2023/07/10 07:36:31;;;;;;;8.02;4.70;;;;;;;26.57;78.00;96403.84;5030331;28;24494;-80
2023/07/10 07:38:58;;;;;;;8.32;4.32;;;;;;;26.13;79.16;96409.00;5024998;28;24459;-81
2023/07/10 07:41:26;;;;;;;7.00;4.55;;;;;;;25.97;79.50;96407.31;5027806;28;24436;-77
2023/07/10 07:43:52;;;;;;;6.50;4.67;;;;;;;25.78;80.63;96405.91;5017937;28;24493;-76
2023/07/10 07:46:19;;;;;;;6.75;3.88;;;;;;;25.98;79.78;96408.94;5019761;28;24440;-77
2023/07/10 07:48:45;;;;;;;5.85;4.13;;;;;;;26.21;80.12;96406.28;5019114;28;24444;-77
2023/07/10 07:51:11;;;;;;;7.65;4.53;;;;;;;26.51;79.03;96404.56;5022712;28;24440;-78
2023/07/10 07:53:40;;;;;;;6.35;3.65;;;;;;;26.81;76.71;96405.44;5039910;28;24443;-77
2023/07/10 07:56:06;;;;;;;8.70;3.80;;;;;;;26.85;75.72;96393.44;5023322;28;24440;-78
2023/07/10 07:58:34;;;;;;;9.95;4.47;;;;;;;26.52;76.36;96401.75;5019449;28;24428;-78
2023/07/10 08:01:01;;;;;;;5.10;3.70;;;;;;;26.60;77.88;96408.81;5041812;28;24439;-78
2023/07/10 08:03:28;;;;;;;7.07;4.50;;;;;;;26.53;78.05;96400.72;5036277;28;24528;-77
2023/07/10 08:05:55;;;;;;;8.27;4.15;;;;;;;26.46;78.80;96393.66;5025885;28;24447;-77
2023/07/10 08:08:22;;;;;;;13.25;4.18;;;;;;;26.47;79.41;96397.97;5026179;28;24439;-77
2023/07/10 08:10:50;;;;;;;6.30;4.13;;;;;;;26.70;81.43;96393.44;5044058;28;24460;-78
2023/07/10 08:13:19;;;;;;;6.32;4.35;;;;;;;27.04;77.21;96397.38;5021511;28;24467;-79
2023/07/10 08:15:46;;;;;;;6.63;4.25;;;;;;;26.80;78.76;96385.19;5021008;28;24458;-79
2023/07/10 08:18:13;;;;;;;7.23;4.23;;;;;;;26.86;78.37;96378.31;5039570;28;24436;-79
2023/07/10 08:20:40;;;;;;;6.55;3.97;;;;;;;26.69;80.88;96381.13;5020965;28;24446;-78
2023/07/10 08:23:06;;;;;;;6.43;4.10;;;;;;;26.95;79.92;96387.84;5036096;28;24436;-78
2023/07/10 08:25:34;;;;;;;6.82;4.20;;;;;;;26.85;74.16;96382.00;5035295;28;24801;-79
2023/07/10 08:28:00;;;;;;;7.78;4.20;;;;;;;27.01;74.34;96379.97;5039929;28;24906;-79
2023/07/10 08:30:28;;;;;;;14.15;5.03;;;;;;;26.94;71.65;96372.91;5039050;28;24451;-76
2023/07/10 08:32:56;;;;;;;7.17;4.60;;;;;;;26.70;72.03;96377.50;5028802;28;24443;-80
2023/07/10 08:35:23;;;;;;;6.85;4.50;;;;;;;26.86;73.43;96378.31;5039707;28;24782;-80
2023/07/10 08:37:50;;;;;;;9.85;4.57;;;;;;;26.65;71.53;96379.84;5037654;28;24880;-79
2023/07/10 08:40:26;;;;;;;7.43;4.23;;;;;;;26.77;73.00;96375.75;5041951;28;24531;-80
2023/07/10 08:42:53;;;;;;;6.00;4.40;;;;;;;26.66;72.45;96385.97;5040846;28;24443;-80
2023/07/10 08:45:31;;;;;;;8.60;4.07;;;;;;;26.70;72.45;96384.66;5040823;28;24583;-79
2023/07/10 08:48:14;;;;;;;7.07;4.22;;;;;;;27.12;69.27;96385.88;5028912;28;24435;-80
2023/07/10 08:50:42;;;;;;;6.30;3.83;;;;;;;27.41;68.14;96375.19;5042202;28;24493;-80
2023/07/10 08:53:11;;;;;;;13.43;3.92;;;;;;;27.78;68.97;96384.00;5019892;28;24455;-76
2023/07/10 08:56:01;;;;;;;7.25;4.20;;;;;;;27.96;70.00;96378.25;5043960;28;24448;-81
2023/07/10 08:58:31;;;;;;;5.93;4.40;;;;;;;27.78;70.47;96386.69;5027193;28;24425;-81
2023/07/10 09:01:00;;;;;;;6.15;3.70;;;;;;;27.69;71.12;96385.91;5025967;28;24778;-80
2023/07/10 09:03:39;;;;;;;7.10;4.35;;;;;;;27.42;70.01;96394.63;5037268;28;24440;-79
2023/07/10 09:06:06;;;;;;;8.25;4.45;;;;;;;27.64;69.80;96388.34;5034028;28;24433;-79
2023/07/10 09:08:34;;;;;;;7.85;4.38;;;;;;;27.78;70.76;96389.34;5035798;28;24440;-82
2023/07/10 09:11:03;;;;;;;6.55;4.57;;;;;;;27.90;69.32;96394.97;5032099;28;24462;-80
2023/07/10 09:13:37;;;;;;;8.63;4.43;;;;;;;27.49;72.35;96390.22;5041069;28;24440;-77
2023/07/10 09:16:13;;;;;;;6.47;4.37;;;;;;;27.48;72.54;96405.34;5015377;28;24499;-77
2023/07/10 09:18:53;;;;;;;5.03;4.07;;;;;;;27.52;70.78;96387.19;5026993;28;24447;-78
2023/07/10 09:21:22;;;;;;;22.23;6.35;;;;;;;27.41;72.80;96387.66;5033942;28;24989;-79
2023/07/10 09:23:50;;;;;;;8.68;4.85;;;;;;;27.43;74.24;96390.94;5037386;28;25192;-79
2023/07/10 09:26:19;;;;;;;8.80;4.75;;;;;;;27.25;72.92;96378.88;5030444;28;24450;-78
2023/07/10 09:28:54;;;;;;;12.15;4.18;;;;;;;27.54;73.06;96371.84;5039247;28;24489;-78
2023/07/10 09:31:40;;;;;;;7.57;4.55;;;;;;;27.42;73.93;96382.16;5031097;28;24993;-80
2023/07/10 09:34:11;;;;;;;9.52;4.50;;;;;;;27.15;75.28;96375.69;5033248;28;24993;-77
2023/07/10 09:36:37;;;;;;;8.03;4.40;;;;;;;26.97;77.24;96376.03;5031360;28;24438;-79
2023/07/10 09:39:04;;;;;;;7.55;4.50;;;;;;;26.93;76.42;96380.06;5032671;28;24458;-80
2023/07/10 09:41:31;;;;;;;7.70;4.72;;;;;;;27.07;78.52;96386.38;5038386;28;24444;-78
2023/07/10 09:43:59;;;;;;;6.28;4.30;;;;;;;27.17;77.72;96386.94;5033868;28;24462;-81
2023/07/10 09:46:28;;;;;;;6.78;4.65;;;;;;;27.15;77.97;96388.16;5034124;28;24451;-80
2023/07/10 09:48:57;;;;;;;8.43;4.60;;;;;;;27.16;77.52;96382.63;5024429;28;24432;-79
2023/07/10 09:51:27;;;;;;;7.40;4.40;;;;;;;27.21;76.71;96390.88;5029765;28;24464;-79
2023/07/10 09:54:02;;;;;;;5.67;4.30;;;;;;;27.39;76.04;96387.00;5045163;28;24463;-80
2023/07/10 09:56:35;;;;;;;8.18;5.10;;;;;;;27.43;75.56;96381.13;5044355;28;24841;-80
2023/07/10 09:59:02;;;;;;;7.18;4.65;;;;;;;26.99;77.12;96384.63;5033520;28;24442;-80
2023/07/10 10:01:31;;;;;;;7.53;4.40;;;;;;;27.26;72.71;96377.88;5040043;28;24438;-80
2023/07/10 10:03:58;;;;;;;6.95;4.20;;;;;;;27.53;71.04;96380.03;5028850;28;24428;-80
2023/07/10 10:06:30;;;;;;;8.82;4.80;;;;;;;27.89;68.14;96375.53;5034090;28;24502;-81
2023/07/10 10:08:57;;;;;;;8.02;4.45;;;;;;;28.04;64.90;96380.78;5036913;28;24431;-81
2023/07/10 10:11:35;;;;;;;12.65;4.47;;;;;;;28.20;64.98;96377.84;5037133;28;24460;-81
2023/07/10 10:14:06;;;;;;;21.25;5.00;;;;;;;28.14;64.29;96383.94;5035517;28;24447;-80
2023/07/10 10:16:37;;;;;;;6.20;4.47;;;;;;;28.54;62.70;96376.31;5028363;28;24443;-81
2023/07/10 10:19:10;;;;;;;5.70;4.20;;;;;;;28.42;61.04;96376.00;5033966;28;24798;-80
2023/07/10 10:21:40;;;;;;;10.27;4.70;;;;;;;28.40;62.01;96372.72;5036038;28;24801;-82
2023/07/10 10:24:10;;;;;;;9.18;4.78;;;;;;;28.71;61.61;96379.50;5036401;28;24981;-82
2023/07/10 10:26:56;;;;;;;7.25;3.97;;;;;;;28.84;61.57;96373.44;5031304;28;24442;-81
2023/07/10 10:29:40;;;;;;;8.45;4.40;;;;;;;28.60;61.05;96383.53;5037155;28;24411;-81
2023/07/10 10:32:18;;;;;;;9.30;4.25;;;;;;;28.71;60.79;96376.84;5020904;28;25016;-80
2023/07/10 10:34:51;;;;;;;6.72;4.40;;;;;;;28.86;60.47;96382.88;5022992;28;24440;-79
2023/07/10 10:37:36;;;;;;;7.90;4.43;;;;;;;28.54;59.51;96368.31;5026241;28;24437;-80
2023/07/10 10:40:05;;;;;;;9.97;4.37;;;;;;;28.95;58.48;96380.88;5036612;28;24423;-79
2023/07/10 10:42:38;;;;;;;7.65;4.40;;;;;;;28.48;59.71;96386.91;5035027;28;24862;-78
2023/07/10 10:45:14;;;;;;;5.80;4.38;;;;;;;28.28;58.17;96392.06;5041605;28;24976;-79
2023/07/10 10:47:49;;;;;;;5.70;3.83;;;;;;;28.81;58.92;96388.00;5024659;28;24844;-79
2023/07/10 10:50:27;;;;;;;5.97;4.03;;;;;;;28.94;57.40;96389.91;5030465;28;24458;-80
2023/07/10 10:53:11;;;;;;;6.70;4.40;;;;;;;28.55;57.18;96395.78;5036470;28;24446;-78
2023/07/10 10:55:48;;;;;;;5.80;3.77;;;;;;;28.51;52.90;96386.53;5036717;28;24404;-78
2023/07/10 10:58:25;;;;;;;7.63;4.43;;;;;;;28.49;56.69;96386.72;5029490;28;24435;-77
2023/07/10 11:01:02;;;;;;;9.05;3.97;;;;;;;28.73;57.60;96384.63;5037495;28;24425;-78
2023/07/10 11:03:33;;;;;;;6.57;3.90;;;;;;;28.96;56.18;96382.53;5027420;28;24436;-80
2023/07/10 11:06:13;;;;;;;7.72;4.63;;;;;;;28.89;55.82;96384.34;5040881;28;24486;-79
2023/07/10 11:08:46;;;;;;;11.27;4.80;;;;;;;28.96;53.66;96374.53;5030866;28;24436;-77
2023/07/10 11:11:18;;;;;;;9.50;4.10;;;;;;;28.94;53.42;96373.91;5032618;28;24462;-77
2023/07/10 11:13:44;;;;;;;5.90;4.40;;;;;;;28.94;51.58;96363.25;5034493;28;24518;-77
2023/07/10 11:16:11;;;;;;;9.27;3.75;;;;;;;29.03;52.07;96369.25;5024970;28;24440;-78
2023/07/10 11:18:38;;;;;;;7.65;4.20;;;;;;;29.25;52.55;96362.78;5040590;28;24964;-80
2023/07/10 11:21:05;;;;;;;8.45;3.97;;;;;;;29.55;49.53;96359.81;5027180;28;24464;-79
2023/07/10 11:23:34;;;;;;;7.47;3.97;;;;;;;29.21;47.36;96355.41;5055875;28;24428;-79
2023/07/10 11:26:07;;;;;;;6.85;4.50;;;;;;;29.09;48.82;96350.63;5036833;28;24443;-80
2023/07/10 11:28:34;;;;;;;8.02;3.67;;;;;;;29.60;47.86;96350.22;5037919;28;24452;-78
2023/07/10 11:31:29;;;;;;;5.57;4.00;;;;;;;29.93;40.97;96341.47;5039071;28;24451;-79
2023/07/10 11:34:31;;;;;;;8.18;3.78;;;;;;;29.99;40.66;96335.28;5035477;28;24435;-81